createdAt,value
2019-04-07T00:00:23.380Z,97662.17
2019-04-07T00:02:31.477Z,97666.20
2019-04-07T00:04:39.859Z,97662.13
2019-04-07T00:06:47.779Z,97660.57
2019-04-07T00:08:55.711Z,97660.87
2019-04-07T00:11:03.713Z,97656.31
2019-04-07T00:13:11.417Z,97653.86
2019-04-07T00:15:19.200Z,97651.30
2019-04-07T00:17:28.574Z,97655.34
2019-04-07T00:19:38.072Z,97653.27
2019-04-07T00:21:45.940Z,97649.52
2019-04-07T00:23:54.320Z,97657.28
2019-04-07T00:26:02.279Z,97658.93
2019-04-07T00:28:10.153Z,97654.37
2019-04-07T00:30:18.069Z,97649.09
2019-04-07T00:32:25.888Z,97647.35
2019-04-07T00:34:33.568Z,97646.72
2019-04-07T00:36:41.329Z,97640.44
2019-04-07T00:38:49.141Z,97644.17
2019-04-07T00:40:56.925Z,97641.81
2019-04-07T00:43:05.599Z,97643.19
2019-04-07T00:45:14.121Z,97642.54
2019-04-07T00:47:22.076Z,97641.66
2019-04-07T00:49:29.821Z,97637.15
2019-04-07T00:51:37.586Z,97635.52
2019-04-07T00:53:45.467Z,97630.52
2019-04-07T00:55:53.277Z,97630.81
2019-04-07T00:58:01.673Z,97636.19
2019-04-07T01:00:16.500Z,97627.98
2019-04-07T01:02:24.408Z,97630.87
2019-04-07T01:04:32.436Z,97630.73
2019-04-07T01:06:40.630Z,97625.62
2019-04-07T01:08:49.012Z,97622.34
2019-04-07T01:10:57.025Z,97619.78
2019-04-07T01:13:06.538Z,97616.15
2019-04-07T01:15:15.116Z,97612.22
2019-04-07T01:17:24.161Z,97618.22
2019-04-07T01:19:34.422Z,97612.33
2019-04-07T01:21:42.248Z,97612.33
2019-04-07T01:23:50.218Z,97603.09
2019-04-07T01:25:58.548Z,97605.45
2019-04-07T01:28:06.652Z,97602.25
2019-04-07T01:30:16.101Z,97607.09
2019-04-07T01:32:24.107Z,97597.23
2019-04-07T01:34:31.878Z,97597.61
2019-04-07T01:36:39.646Z,97600.33
2019-04-07T01:38:47.489Z,97595.30
2019-04-07T01:41:03.128Z,97600.06
2019-04-07T01:43:16.229Z,97596.67
2019-04-07T01:45:29.091Z,97596.50
2019-04-07T01:47:52.339Z,97602.83
2019-04-07T01:50:04.728Z,97600.11
2019-04-07T01:52:19.672Z,97598.38
2019-04-07T01:54:29.029Z,97595.20
2019-04-07T01:56:41.628Z,97589.46
2019-04-07T01:58:57.345Z,97591.09
2019-04-07T02:01:09.596Z,97592.66
2019-04-07T02:03:25.357Z,97586.18
2019-04-07T02:05:33.150Z,97592.28
2019-04-07T02:07:59.245Z,97585.35
2019-04-07T02:10:10.864Z,97589.72
2019-04-07T02:12:26.819Z,97589.92
2019-04-07T02:14:36.761Z,97596.75
2019-04-07T02:16:56.544Z,97605.78
2019-04-07T02:19:15.116Z,97610.54
2019-04-07T02:21:24.988Z,97612.16
2019-04-07T02:23:49.799Z,97607.80
2019-04-07T02:25:59.322Z,97606.17
2019-04-07T02:28:14.481Z,97609.91
2019-04-07T02:30:27.211Z,97611.73
2019-04-07T02:32:42.617Z,97607.16
2019-04-07T02:35:03.628Z,97610.55
2019-04-07T02:37:26.634Z,97615.11
2019-04-07T02:39:42.270Z,97623.84
2019-04-07T02:41:50.303Z,97621.48
2019-04-07T02:44:02.860Z,97627.67
2019-04-07T02:46:27.501Z,97624.13
2019-04-07T02:48:41.323Z,97624.83
2019-04-07T02:50:54.860Z,97625.20
2019-04-07T02:53:05.725Z,97622.01
2019-04-07T02:55:30.184Z,97625.74
2019-04-07T02:57:48.793Z,97632.77
2019-04-07T02:59:58.258Z,97628.74
2019-04-07T03:02:06.214Z,97625.36
2019-04-07T03:04:19.109Z,97623.83
2019-04-07T03:06:49.761Z,97624.66
2019-04-07T03:08:57.787Z,97625.11
2019-04-07T03:11:20.137Z,97626.94
2019-04-07T03:13:35.057Z,97628.75
2019-04-07T03:15:48.407Z,97615.98
2019-04-07T03:17:56.135Z,97624.13
2019-04-07T03:20:18.737Z,97626.20
2019-04-07T03:22:27.437Z,97627.86
2019-04-07T03:24:34.981Z,97631.30
2019-04-07T03:27:00.841Z,97632.13
2019-04-07T03:29:11.839Z,97632.87
2019-04-07T03:31:27.299Z,97634.59
2019-04-07T03:33:43.064Z,97636.70
2019-04-07T03:35:53.125Z,97633.31
2019-04-07T03:38:02.016Z,97632.97
2019-04-07T03:40:28.039Z,97642.80
2019-04-07T03:42:43.693Z,97640.24
2019-04-07T03:44:56.675Z,97643.27
2019-04-07T03:47:09.163Z,97649.17
2019-04-07T03:49:23.469Z,97642.55
2019-04-07T03:51:33.153Z,97644.07
2019-04-07T03:53:59.457Z,97641.90
2019-04-07T03:56:11.718Z,97637.49
2019-04-07T03:58:37.739Z,97640.97
2019-04-07T04:01:13.707Z,97641.17
2019-04-07T04:03:40.608Z,97637.88
2019-04-07T04:05:59.636Z,97637.88
2019-04-07T04:08:09.456Z,97643.63
2019-04-07T04:10:34.410Z,97637.69
2019-04-07T04:12:51.242Z,97645.55
2019-04-07T04:15:03.715Z,97641.72
2019-04-07T04:17:11.717Z,97646.82
2019-04-07T04:19:19.486Z,97642.45
2019-04-07T04:21:28.979Z,97642.00
2019-04-07T04:23:42.707Z,97650.30
2019-04-07T04:25:49.108Z,97644.17
2019-04-07T04:27:57.020Z,97642.45
2019-04-07T04:30:07.933Z,97648.64
2019-04-07T04:32:16.689Z,97647.10
2019-04-07T04:34:25.117Z,97651.82
2019-04-07T04:36:33.489Z,97654.66
2019-04-07T04:38:41.391Z,97649.36
2019-04-07T04:40:49.424Z,97657.75
2019-04-07T04:42:58.209Z,97652.80
2019-04-07T04:45:08.480Z,97651.17
2019-04-07T04:47:16.708Z,97656.47
2019-04-07T04:49:24.476Z,97660.45
2019-04-07T04:51:35.464Z,97655.25
2019-04-07T04:53:42.373Z,97655.34
2019-04-07T04:55:50.345Z,97656.07
2019-04-07T04:57:58.547Z,97658.61
2019-04-07T05:00:08.257Z,97660.07
2019-04-07T05:02:17.041Z,97658.15
2019-04-07T05:04:24.852Z,97661.50
2019-04-07T05:06:33.174Z,97658.78
2019-04-07T05:08:43.367Z,97656.02
2019-04-07T05:10:51.067Z,97657.55
2019-04-07T05:12:58.938Z,97651.27
2019-04-07T05:15:09.711Z,97656.58
2019-04-07T05:17:17.466Z,97656.13
2019-04-07T05:19:25.251Z,97660.51
2019-04-07T05:21:33.083Z,97660.41
2019-04-07T05:23:41.679Z,97657.30
2019-04-07T05:25:49.451Z,97661.87
2019-04-07T05:27:58.632Z,97660.29
2019-04-07T05:30:10.181Z,97660.64
2019-04-07T05:32:17.857Z,97658.47
2019-04-07T05:34:25.797Z,97666.13
2019-04-07T05:36:33.803Z,97667.66
2019-04-07T05:38:42.061Z,97665.58
2019-04-07T05:40:51.041Z,97664.75
2019-04-07T05:42:58.803Z,97665.38
2019-04-07T05:45:08.268Z,97667.84
2019-04-07T05:47:16.513Z,97671.84
2019-04-07T05:49:24.423Z,97669.73
2019-04-07T05:51:32.736Z,97671.12
2019-04-07T05:53:42.218Z,97675.08
2019-04-07T05:55:53.819Z,97668.89
2019-04-07T05:58:03.462Z,97672.33
2019-04-07T06:00:16.323Z,97673.72
2019-04-07T06:02:23.499Z,97675.52
2019-04-07T06:04:31.533Z,97673.66
2019-04-07T06:06:41.879Z,97681.12
2019-04-07T06:08:49.788Z,97677.29
2019-04-07T06:11:00.425Z,97677.19
2019-04-07T06:13:07.089Z,97675.04
2019-04-07T06:15:19.286Z,97685.86
2019-04-07T06:17:26.325Z,97679.53
2019-04-07T06:19:37.370Z,97683.30
2019-04-07T06:21:46.050Z,97683.96
2019-04-07T06:23:58.418Z,97688.07
2019-04-07T06:26:09.310Z,97687.06
2019-04-07T06:28:17.432Z,97685.86
2019-04-07T06:30:28.070Z,97682.68
2019-04-07T06:32:36.163Z,97686.73
2019-04-07T06:34:44.426Z,97686.00
2019-04-07T06:36:55.238Z,97689.94
2019-04-07T06:39:02.443Z,97694.39
2019-04-07T06:41:10.463Z,97692.39
2019-04-07T06:43:18.734Z,97692.36
2019-04-07T06:45:35.057Z,97693.74
2019-04-07T06:47:50.784Z,97689.63
2019-04-07T06:50:10.312Z,97695.73
2019-04-07T06:52:40.595Z,97702.31
2019-04-07T06:55:03.396Z,97702.76
2019-04-07T06:57:12.843Z,97703.90
2019-04-07T06:59:25.251Z,97705.11
2019-04-07T07:01:38.345Z,97708.64
2019-04-07T07:04:08.590Z,97706.56
2019-04-07T07:06:17.388Z,97704.14
2019-04-07T07:08:46.417Z,97706.50
2019-04-07T07:11:10.575Z,97707.87
2019-04-07T07:13:31.301Z,97701.38
2019-04-07T07:15:54.021Z,97704.39
2019-04-07T07:18:04.752Z,97711.38
2019-04-07T07:20:12.475Z,97710.33
2019-04-07T07:22:32.134Z,97710.19
2019-04-07T07:24:40.450Z,97704.58
2019-04-07T07:26:48.386Z,97707.16
2019-04-07T07:28:56.290Z,97704.51
2019-04-07T07:31:04.359Z,97712.86
2019-04-07T07:33:13.628Z,97711.93
2019-04-07T07:35:21.464Z,97710.48
2019-04-07T07:37:30.053Z,97714.72
2019-04-07T07:39:42.119Z,97714.82
2019-04-07T07:41:51.678Z,97718.71
2019-04-07T07:44:03.185Z,97717.10
2019-04-07T07:46:07.727Z,97718.77
2019-04-07T07:48:16.298Z,97719.53
2019-04-07T07:50:24.563Z,97719.98
2019-04-07T07:52:32.999Z,97723.83
2019-04-07T07:54:42.398Z,97721.98
2019-04-07T07:56:51.647Z,97719.08
2019-04-07T07:59:01.801Z,97725.66
2019-04-07T08:01:12.278Z,97724.08
2019-04-07T08:03:22.646Z,97727.66
2019-04-07T08:05:31.743Z,97728.07
2019-04-07T08:07:44.355Z,97727.54
2019-04-07T08:09:49.185Z,97729.09
2019-04-07T08:11:57.038Z,97729.53
2019-04-07T08:14:05.599Z,97729.35
2019-04-07T08:16:14.071Z,97726.07
2019-04-07T08:18:21.860Z,97732.10
2019-04-07T08:20:29.751Z,97724.89
2019-04-07T08:22:42.910Z,97730.37
2019-04-07T08:24:51.175Z,97734.21
2019-04-07T08:27:00.082Z,97738.84
2019-04-07T08:29:08.756Z,97737.58
2019-04-07T08:31:21.260Z,97742.73
2019-04-07T08:33:29.500Z,97742.25
2019-04-07T08:35:39.445Z,97745.53
2019-04-07T08:37:48.128Z,97744.59
2019-04-07T08:39:57.047Z,97746.25
2019-04-07T08:42:09.822Z,97753.12
2019-04-07T08:44:14.995Z,97747.27
2019-04-07T08:46:22.920Z,97747.84
2019-04-07T08:48:30.857Z,97750.53
2019-04-07T08:50:38.729Z,97748.53
2019-04-07T08:52:46.725Z,97749.72
2019-04-07T08:54:54.385Z,97746.67
2019-04-07T08:57:02.308Z,97745.51
2019-04-07T08:59:12.206Z,97748.02
2019-04-07T09:01:21.076Z,97750.25
2019-04-07T09:03:29.298Z,97749.41
2019-04-07T09:05:37.268Z,97747.33
2019-04-07T09:07:46.220Z,97748.62
2019-04-07T09:09:54.457Z,97752.61
2019-04-07T09:12:02.538Z,97749.12
2019-04-07T09:14:10.503Z,97755.70
2019-04-07T09:16:21.174Z,97751.73
2019-04-07T09:18:36.713Z,97748.25
2019-04-07T09:20:49.080Z,97749.17
2019-04-07T09:23:01.732Z,97759.22
2019-04-07T09:25:21.456Z,97762.23
2019-04-07T09:27:38.188Z,97759.53
2019-04-07T09:29:55.780Z,97765.24
2019-04-07T09:32:23.772Z,97760.61
2019-04-07T09:34:35.994Z,97758.55
2019-04-07T09:36:47.910Z,97766.29
2019-04-07T09:38:58.001Z,97768.50
2019-04-07T09:41:06.232Z,97761.98
2019-04-07T09:43:26.251Z,97768.73
2019-04-07T09:45:39.384Z,97767.32
2019-04-07T09:47:51.190Z,97772.72
2019-04-07T09:50:17.454Z,97769.09
2019-04-07T09:52:45.120Z,97773.06
2019-04-07T09:54:58.730Z,97772.46
2019-04-07T09:57:24.801Z,97783.73
2019-04-07T09:59:53.508Z,97782.58
2019-04-07T10:02:18.522Z,97783.47
2019-04-07T10:04:28.065Z,97781.59
2019-04-07T10:06:39.914Z,97785.77
2019-04-07T10:08:53.303Z,97781.69
2019-04-07T10:11:13.019Z,97779.58
2019-04-07T10:13:22.823Z,97782.41
2019-04-07T10:15:51.025Z,97784.05
2019-04-07T10:17:59.784Z,97785.91
2019-04-07T10:20:12.383Z,97778.56
2019-04-07T10:22:39.883Z,97783.36
2019-04-07T10:24:53.859Z,97781.29
2019-04-07T10:27:08.094Z,97775.75
2019-04-07T10:29:20.565Z,97777.39
2019-04-07T10:31:37.823Z,97780.89
2019-04-07T10:33:56.309Z,97774.14
2019-04-07T10:36:06.022Z,97778.91
2019-04-07T10:38:32.741Z,97776.47
2019-04-07T10:40:59.459Z,97774.47
2019-04-07T10:43:18.422Z,97771.91
2019-04-07T10:45:28.431Z,97774.70
2019-04-07T10:47:53.337Z,97776.08
2019-04-07T10:50:12.233Z,97768.61
2019-04-07T10:52:37.804Z,97767.31
2019-04-07T10:54:51.639Z,97767.91
2019-04-07T10:57:01.038Z,97760.42
2019-04-07T10:59:25.600Z,97770.84
2019-04-07T11:01:36.210Z,97765.91
2019-04-07T11:03:46.849Z,97771.05
2019-04-07T11:06:12.713Z,97773.05
2019-04-07T11:08:28.770Z,97765.99
2019-04-07T11:10:39.623Z,97765.28
2019-04-07T11:12:58.215Z,97765.84
2019-04-07T11:15:11.030Z,97765.96
2019-04-07T11:17:29.308Z,97767.73
2019-04-07T11:19:51.347Z,97766.89
2019-04-07T11:22:18.758Z,97769.98
2019-04-07T11:24:31.290Z,97766.30
2019-04-07T11:26:45.437Z,97771.16
2019-04-07T11:29:07.170Z,97766.55
2019-04-07T11:31:25.619Z,97771.74
2019-04-07T11:33:38.052Z,97774.53
2019-04-07T11:35:47.651Z,97774.84
2019-04-07T11:38:09.289Z,97775.82
2019-04-07T11:40:42.050Z,97771.02
2019-04-07T11:42:55.714Z,97773.94
2019-04-07T11:45:04.966Z,97778.93
2019-04-07T11:47:25.673Z,97787.28
2019-04-07T11:49:35.763Z,97780.73
2019-04-07T11:51:45.199Z,97787.31
2019-04-07T11:53:57.782Z,97794.95
2019-04-07T11:56:24.894Z,97790.86
2019-04-07T11:58:46.713Z,97794.42
2019-04-07T12:00:54.685Z,97792.51
2019-04-07T12:03:10.605Z,97797.90
2019-04-07T12:05:23.450Z,97793.64
2019-04-07T12:07:53.896Z,97789.97
2019-04-07T12:09:59.986Z,97796.11
2019-04-07T12:12:27.794Z,97794.42
2019-04-07T12:14:45.512Z,97789.77
2019-04-07T12:17:12.603Z,97790.68
2019-04-07T12:19:31.067Z,97790.03
2019-04-07T12:21:40.659Z,97789.20
2019-04-07T12:23:50.512Z,97788.11
2019-04-07T12:26:04.466Z,97788.81
2019-04-07T12:28:28.688Z,97795.52
2019-04-07T12:30:41.507Z,97795.05
2019-04-07T12:32:54.104Z,97785.70
2019-04-07T12:35:02.101Z,97784.52
2019-04-07T12:37:18.754Z,97784.06
2019-04-07T12:39:28.875Z,97786.27
2019-04-07T12:41:56.157Z,97791.90
2019-04-07T12:44:10.413Z,97788.73
2019-04-07T12:46:36.497Z,97792.55
2019-04-07T12:48:48.765Z,97782.13
2019-04-07T12:50:56.380Z,97783.97
2019-04-07T12:53:10.197Z,97788.02
2019-04-07T12:55:32.578Z,97772.98
2019-04-07T12:57:58.829Z,97777.17
2019-04-07T13:00:13.537Z,97773.55
2019-04-07T13:02:38.192Z,97769.09
2019-04-07T13:04:59.705Z,97766.15
2019-04-07T13:07:08.943Z,97766.31
2019-04-07T13:09:33.057Z,97766.59
2019-04-07T13:12:00.012Z,97764.12
2019-04-07T13:14:24.537Z,97767.56
2019-04-07T13:16:37.959Z,97768.20
2019-04-07T13:19:09.354Z,97768.08
2019-04-07T13:21:24.774Z,97762.09
2019-04-07T13:23:40.279Z,97764.27
2019-04-07T13:26:01.008Z,97770.98
2019-04-07T13:28:14.169Z,97761.83
2019-04-07T13:30:27.122Z,97764.73
2019-04-07T13:32:41.633Z,97763.91
2019-04-07T13:34:49.949Z,97766.55
2019-04-07T13:36:58.009Z,97765.95
2019-04-07T13:39:22.125Z,97765.82
2019-04-07T13:41:45.894Z,97763.94
2019-04-07T13:43:55.996Z,97763.34
2019-04-07T13:46:18.203Z,97769.09
2019-04-07T13:48:20.912Z,97766.69
2019-04-07T13:50:49.420Z,97763.81
2019-04-07T13:52:59.079Z,97761.47
2019-04-07T13:55:16.485Z,97764.77
2019-04-07T13:57:40.402Z,97755.38
2019-04-07T13:59:54.762Z,97763.22
2019-04-07T14:02:16.313Z,97760.08
2019-04-07T14:04:37.527Z,97766.16
2019-04-07T14:06:53.247Z,97762.09
2019-04-07T14:09:04.186Z,97761.88
2019-04-07T14:11:31.131Z,97764.32
2019-04-07T14:13:43.193Z,97767.81
2019-04-07T14:16:09.501Z,97761.33
2019-04-07T14:18:24.488Z,97763.96
2019-04-07T14:20:34.665Z,97764.42
2019-04-07T14:23:00.947Z,97763.32
2019-04-07T14:25:27.934Z,97763.32
2019-04-07T14:27:47.319Z,97765.91
2019-04-07T14:29:55.930Z,97768.16
2019-04-07T14:32:13.106Z,97761.31
2019-04-07T14:34:23.477Z,97765.38
2019-04-07T14:36:51.097Z,97769.25
2019-04-07T14:38:58.707Z,97768.09
2019-04-07T14:41:16.077Z,97768.83
2019-04-07T14:43:28.527Z,97772.73
2019-04-07T14:45:55.664Z,97769.73
2019-04-07T14:48:05.420Z,97777.00
2019-04-07T14:50:18.971Z,97777.47
2019-04-07T14:52:26.812Z,97777.53
2019-04-07T14:54:56.973Z,97776.11
2019-04-07T14:57:19.866Z,97776.47
2019-04-07T14:59:45.243Z,97773.66
2019-04-07T15:02:00.489Z,97775.59
2019-04-07T15:04:07.022Z,97773.75
2019-04-07T15:06:15.404Z,97774.15
2019-04-07T15:08:32.908Z,97775.73
2019-04-07T15:10:42.460Z,97775.02
2019-04-07T15:12:52.995Z,97770.80
2019-04-07T15:15:05.547Z,97771.13
2019-04-07T15:17:11.037Z,97773.99
2019-04-07T15:19:18.934Z,97772.31
2019-04-07T15:21:27.643Z,97768.58
2019-04-07T15:23:35.532Z,97766.39
2019-04-07T15:25:46.000Z,97767.86
2019-04-07T15:27:56.406Z,97772.59
2019-04-07T15:30:02.421Z,97771.28
2019-04-07T15:32:10.612Z,97768.93
2019-04-07T15:34:18.729Z,97766.78
2019-04-07T15:36:27.540Z,97767.67
2019-04-07T15:38:35.629Z,97775.41
2019-04-07T15:40:44.761Z,97776.50
2019-04-07T15:42:52.666Z,97776.73
2019-04-07T15:45:02.345Z,97776.80
2019-04-07T15:47:11.407Z,97780.09
2019-04-07T15:49:19.299Z,97781.62
2019-04-07T15:51:27.095Z,97774.87
2019-04-07T15:53:34.979Z,97781.91
2019-04-07T15:55:49.887Z,97786.36
2019-04-07T15:57:55.334Z,97783.22
2019-04-07T16:00:03.903Z,97783.84
2019-04-07T16:02:14.250Z,97783.97
2019-04-07T16:04:27.810Z,97783.50
2019-04-07T16:06:34.853Z,97784.56
2019-04-07T16:08:41.975Z,97791.73
2019-04-07T16:10:52.054Z,97788.59
2019-04-07T16:12:59.821Z,97785.41
2019-04-07T16:15:09.678Z,97786.91
2019-04-07T16:17:17.431Z,97789.14
2019-04-07T16:19:37.272Z,97793.14
2019-04-07T16:21:34.847Z,97790.69
2019-04-07T16:23:42.947Z,97792.57
2019-04-07T16:25:51.235Z,97790.84
2019-04-07T16:28:00.321Z,97792.15
2019-04-07T16:30:11.020Z,97792.16
2019-04-07T16:32:19.617Z,97796.54
2019-04-07T16:34:28.309Z,97797.71
2019-04-07T16:36:36.651Z,97801.59
2019-04-07T16:38:44.602Z,97800.55
2019-04-07T16:40:52.719Z,97805.13
2019-04-07T16:43:09.906Z,97803.27
2019-04-07T16:45:13.771Z,97808.66
2019-04-07T16:47:24.366Z,97807.14
2019-04-07T16:49:29.286Z,97811.71
2019-04-07T16:51:37.079Z,97816.53
2019-04-07T16:53:44.842Z,97811.94
2019-04-07T16:55:55.207Z,97818.04
2019-04-07T16:58:03.206Z,97817.45
2019-04-07T17:00:15.302Z,97816.41
2019-04-07T17:02:24.113Z,97817.55
2019-04-07T17:04:32.247Z,97819.11
2019-04-07T17:06:40.197Z,97812.06
2019-04-07T17:08:51.200Z,97806.91
2019-04-07T17:10:59.582Z,97814.42
2019-04-07T17:13:16.883Z,97815.02
2019-04-07T17:15:17.770Z,97813.84
2019-04-07T17:17:25.653Z,97808.14
2019-04-07T17:19:35.545Z,97808.27
2019-04-07T17:21:43.133Z,97808.83
2019-04-07T17:23:55.373Z,97806.27
2019-04-07T17:26:03.857Z,97815.27
2019-04-07T17:28:12.110Z,97813.26
2019-04-07T17:30:24.230Z,97819.91
2019-04-07T17:32:34.735Z,97819.89
2019-04-07T17:34:42.739Z,97817.66
2019-04-07T17:36:55.378Z,97820.41
2019-04-07T17:39:18.556Z,97825.66
2019-04-07T17:41:26.592Z,97821.30
2019-04-07T17:43:51.643Z,97824.64
2019-04-07T17:46:01.995Z,97830.80
2019-04-07T17:48:11.655Z,97824.97
2019-04-07T17:50:30.356Z,97823.30
2019-04-07T17:52:42.427Z,97826.66
2019-04-07T17:55:06.279Z,97828.73
2019-04-07T17:57:34.842Z,97829.37
2019-04-07T17:59:53.603Z,97828.73
2019-04-07T18:02:10.680Z,97834.75
2019-04-07T18:04:23.027Z,97839.50
2019-04-07T18:06:36.599Z,97842.28
2019-04-07T18:09:07.949Z,97843.41
2019-04-07T18:11:17.668Z,97845.89
2019-04-07T18:13:49.377Z,97846.48
2019-04-07T18:16:12.175Z,97845.77
2019-04-07T18:18:26.328Z,97849.31
2019-04-07T18:20:39.558Z,97850.66
2019-04-07T18:22:45.494Z,97853.39
2019-04-07T18:25:02.787Z,97845.41
2019-04-07T18:27:25.305Z,97853.80
2019-04-07T18:29:38.383Z,97844.23
2019-04-07T18:31:57.855Z,97843.48
2019-04-07T18:34:16.033Z,97842.53
2019-04-07T18:36:41.687Z,97837.78
2019-04-07T18:39:03.144Z,97844.44
2019-04-07T18:41:34.093Z,97840.34
2019-04-07T18:44:02.495Z,97848.73
2019-04-07T18:46:20.154Z,97845.44
2019-04-07T18:48:32.330Z,97853.78
2019-04-07T18:50:43.316Z,97845.27
2019-04-07T18:52:57.192Z,97851.22
2019-04-07T18:55:18.172Z,97856.72
2019-04-07T18:57:35.973Z,97853.53
2019-04-07T18:59:49.741Z,97856.55
2019-04-07T19:02:11.053Z,97854.00
2019-04-07T19:04:28.109Z,97852.19
2019-04-07T19:06:46.080Z,97854.11
2019-04-07T19:08:58.310Z,97848.74
2019-04-07T19:11:11.981Z,97850.83
2019-04-07T19:13:24.725Z,97854.12
2019-04-07T19:15:31.105Z,97854.59
2019-04-07T19:17:40.623Z,97856.77
2019-04-07T19:19:52.594Z,97860.24
2019-04-07T19:22:18.023Z,97859.70
2019-04-07T19:24:35.367Z,97853.11
2019-04-07T19:26:54.638Z,97855.41
2019-04-07T19:29:08.558Z,97860.41
2019-04-07T19:31:19.549Z,97864.52
2019-04-07T19:33:35.628Z,97858.03
2019-04-07T19:35:49.760Z,97862.05
2019-04-07T19:38:04.954Z,97860.03
2019-04-07T19:40:20.935Z,97859.00
2019-04-07T19:42:48.229Z,97860.11
2019-04-07T19:45:04.364Z,97859.55
2019-04-07T19:47:20.676Z,97851.69
2019-04-07T19:49:29.364Z,97854.13
2019-04-07T19:51:41.654Z,97858.68
2019-04-07T19:54:03.237Z,97860.20
2019-04-07T19:56:29.393Z,97864.44
2019-04-07T19:58:42.630Z,97869.42
2019-04-07T20:00:58.150Z,97862.58
2019-04-07T20:03:13.574Z,97866.05
2019-04-07T20:05:26.115Z,97865.84
2019-04-07T20:07:52.999Z,97869.40
2019-04-07T20:10:16.551Z,97870.38
2019-04-07T20:12:29.668Z,97861.05
2019-04-07T20:14:51.991Z,97867.84
2019-04-07T20:17:00.036Z,97868.91
2019-04-07T20:19:13.187Z,97873.91
2019-04-07T20:21:39.078Z,97874.66
2019-04-07T20:24:03.623Z,97878.88
2019-04-07T20:26:21.510Z,97877.20
2019-04-07T20:28:34.313Z,97881.64
2019-04-07T20:31:02.620Z,97882.29
2019-04-07T20:33:09.829Z,97879.52
2019-04-07T20:35:27.030Z,97877.05
2019-04-07T20:37:42.390Z,97875.65
2019-04-07T20:40:05.225Z,97875.42
2019-04-07T20:42:24.350Z,97875.84
2019-04-07T20:45:02.377Z,97871.66
2019-04-07T20:47:21.475Z,97875.42
2019-04-07T20:49:48.913Z,97878.30
2019-04-07T20:52:12.722Z,97878.23
2019-04-07T20:54:33.866Z,97877.13
2019-04-07T20:56:51.860Z,97885.28
2019-04-07T20:59:18.291Z,97885.81
2019-04-07T21:01:53.984Z,97885.97
2019-04-07T21:04:11.288Z,97887.86
2019-04-07T21:06:36.643Z,97885.39
2019-04-07T21:09:03.813Z,97884.85
2019-04-07T21:11:19.302Z,97877.38
2019-04-07T21:13:47.113Z,97882.10
2019-04-07T21:15:57.346Z,97880.52
2019-04-07T21:18:11.185Z,97881.55
2019-04-07T21:20:20.526Z,97880.88
2019-04-07T21:22:35.545Z,97882.15
2019-04-07T21:24:51.344Z,97881.75
2019-04-07T21:27:01.265Z,97883.55
2019-04-07T21:29:11.335Z,97883.11
2019-04-07T21:31:21.446Z,97882.07
2019-04-07T21:33:29.456Z,97875.53
2019-04-07T21:35:38.971Z,97878.52
2019-04-07T21:37:56.243Z,97877.17
2019-04-07T21:40:22.715Z,97876.81
2019-04-07T21:42:34.528Z,97886.15
2019-04-07T21:44:42.158Z,97886.07
2019-04-07T21:47:04.313Z,97888.69
2019-04-07T21:49:12.005Z,97884.59
2019-04-07T21:51:21.431Z,97889.67
2019-04-07T21:53:32.018Z,97886.97
2019-04-07T21:55:45.800Z,97890.01
2019-04-07T21:57:56.833Z,97891.28
2019-04-07T22:00:10.611Z,97887.47
2019-04-07T22:02:24.316Z,97893.58
2019-04-07T22:04:34.029Z,97890.58
2019-04-07T22:06:59.730Z,97886.34
2019-04-07T22:09:18.017Z,97892.23
2019-04-07T22:11:28.931Z,97886.62
2019-04-07T22:13:36.729Z,97889.85
2019-04-07T22:15:49.316Z,97890.36
2019-04-07T22:17:54.266Z,97884.70
2019-04-07T22:20:02.760Z,97892.53
2019-04-07T22:22:10.839Z,97888.94
2019-04-07T22:24:18.910Z,97888.03
2019-04-07T22:26:27.535Z,97885.89
2019-04-07T22:28:35.483Z,97891.59
2019-04-07T22:30:44.640Z,97889.30
2019-04-07T22:32:53.106Z,97890.10
2019-04-07T22:35:04.776Z,97887.88
2019-04-07T22:37:12.171Z,97884.95
2019-04-07T22:39:20.534Z,97886.61
2019-04-07T22:41:28.296Z,97892.05
2019-04-07T22:43:36.129Z,97885.78
2019-04-07T22:45:53.162Z,97889.16
2019-04-07T22:47:53.752Z,97880.84
2019-04-07T22:50:04.457Z,97891.16
2019-04-07T22:52:11.767Z,97882.63
2019-04-07T22:54:19.700Z,97883.38
2019-04-07T22:56:27.933Z,97885.48
2019-04-07T22:58:36.127Z,97880.92
2019-04-07T23:00:44.503Z,97883.60
2019-04-07T23:02:52.526Z,97883.28
2019-04-07T23:05:00.836Z,97882.91
2019-04-07T23:07:09.825Z,97875.73
2019-04-07T23:09:18.200Z,97884.77
2019-04-07T23:11:25.880Z,97880.45
2019-04-07T23:13:34.027Z,97886.65
2019-04-07T23:15:45.618Z,97883.67
2019-04-07T23:17:53.445Z,97885.84
2019-04-07T23:20:02.351Z,97890.09
2019-04-07T23:22:10.262Z,97887.23
2019-04-07T23:24:19.281Z,97886.67
2019-04-07T23:26:27.048Z,97883.91
2019-04-07T23:28:34.858Z,97878.64
2019-04-07T23:30:42.972Z,97884.59
2019-04-07T23:32:50.877Z,97884.37
2019-04-07T23:34:58.584Z,97882.27
2019-04-07T23:37:06.263Z,97887.41
2019-04-07T23:39:13.950Z,97885.70
2019-04-07T23:41:22.192Z,97883.97
2019-04-07T23:43:30.134Z,97885.74
2019-04-07T23:45:38.028Z,97890.81
2019-04-07T23:47:45.827Z,97883.20
2019-04-07T23:49:54.581Z,97881.70
2019-04-07T23:52:02.736Z,97885.66
2019-04-07T23:54:14.129Z,97881.95
2019-04-07T23:56:22.119Z,97877.02
2019-04-07T23:58:29.775Z,97880.48
